createdAt,value
2023-04-28T00:00:27.902Z,294.5226
2023-04-28T00:01:27.854Z,294.6530
2023-04-28T00:02:27.925Z,294.6530
2023-04-28T00:03:28.542Z,0.0000
2023-04-28T00:04:28.990Z,0.0000
2023-04-28T00:05:29.440Z,294.5226
2023-04-28T00:06:29.525Z,294.0878
2023-04-28T00:07:29.525Z,293.9139
2023-04-28T00:08:29.550Z,0.0000
2023-04-28T00:09:29.479Z,0.0000
2023-04-28T00:10:29.465Z,294.3922
2023-04-28T00:11:29.447Z,294.2183
2023-04-28T00:12:29.453Z,294.3052
2023-04-28T00:13:29.419Z,294.2182
2023-04-28T00:14:29.466Z,0.0000
2023-04-28T00:15:29.407Z,0.0000
2023-04-28T00:16:29.476Z,294.3922
2023-04-28T00:17:29.604Z,294.3052
2023-04-28T00:18:29.611Z,294.1747
2023-04-28T00:19:29.564Z,294.2617
2023-04-28T00:20:29.569Z,294.2617
2023-04-28T00:21:29.518Z,294.4791
2023-04-28T00:22:29.476Z,294.3052
2023-04-28T00:23:29.436Z,294.3487
2023-04-28T00:24:29.478Z,0.0000
2023-04-28T00:25:29.601Z,293.8704
2023-04-28T00:26:29.525Z,293.6530
2023-04-28T00:27:29.475Z,293.7400
2023-04-28T00:28:34.520Z,0.0000
2023-04-28T00:29:30.073Z,293.8104
2023-04-28T00:30:29.979Z,294.1313
2023-04-28T00:31:30.055Z,293.9574
2023-04-28T00:32:29.949Z,293.9574
2023-04-28T00:33:29.915Z,293.9139
2023-04-28T00:34:29.923Z,294.4791
2023-04-28T00:35:29.835Z,0.0000
2023-04-28T00:36:29.927Z,294.2182
2023-04-28T00:37:29.981Z,294.2182
2023-04-28T00:38:29.935Z,294.2182
2023-04-28T00:39:29.875Z,294.3052
2023-04-28T00:40:29.804Z,0.0000
2023-04-28T00:41:29.808Z,294.0009
2023-04-28T00:42:29.785Z,294.3052
2023-04-28T00:43:29.764Z,0.0000
2023-04-28T00:44:29.724Z,294.3052
2023-04-28T00:45:29.775Z,294.1313
2023-04-28T00:46:29.744Z,294.0443
2023-04-28T00:47:29.820Z,294.3487
2023-04-28T00:48:29.805Z,0.0000
2023-04-28T00:49:29.801Z,0.0000
2023-04-28T00:50:29.787Z,294.3052
2023-04-28T00:51:29.760Z,294.3052
2023-04-28T00:52:29.911Z,0.0000
2023-04-28T00:53:29.855Z,0.0000
2023-04-28T00:54:29.869Z,0.0000
2023-04-28T00:55:29.880Z,294.3052
2023-04-28T00:56:29.979Z,0.0000
2023-04-28T00:57:29.959Z,0.0000
2023-04-28T00:58:29.901Z,0.0000
2023-04-28T00:59:29.894Z,0.0000
2023-04-28T01:00:29.837Z,0.0000
2023-04-28T01:01:29.980Z,0.0000
2023-04-28T01:02:30.156Z,0.0000
2023-04-28T01:03:30.560Z,0.0000
2023-04-28T01:04:30.995Z,0.0000
2023-04-28T01:05:31.173Z,0.0000
2023-04-28T01:06:31.229Z,0.0000
2023-04-28T01:07:31.248Z,0.0000
2023-04-28T01:08:31.226Z,0.0000
2023-04-28T01:09:31.345Z,0.0000
2023-04-28T01:10:31.390Z,294.3922
2023-04-28T01:11:31.408Z,294.1313
2023-04-28T01:12:31.410Z,0.0000
2023-04-28T01:13:31.413Z,294.2617
2023-04-28T01:14:31.701Z,294.3052
2023-04-28T01:15:31.693Z,294.3487
2023-04-28T01:16:31.949Z,294.0443
2023-04-28T01:17:31.916Z,294.3922
2023-04-28T01:18:31.924Z,294.5226
2023-04-28T01:19:31.908Z,294.6095
2023-04-28T01:20:31.919Z,294.2617
2023-04-28T01:21:31.927Z,294.2182
2023-04-28T01:22:32.037Z,0.0000
2023-04-28T01:23:32.070Z,294.0878
2023-04-28T01:24:32.022Z,0.0000
2023-04-28T01:25:31.987Z,0.0000
2023-04-28T01:26:32.078Z,0.0000
2023-04-28T01:27:32.030Z,0.0000
2023-04-28T01:28:32.071Z,0.0000
2023-04-28T01:29:32.156Z,0.0000
2023-04-28T01:30:32.152Z,0.0000
2023-04-28T01:31:32.257Z,0.0000
2023-04-28T01:32:32.282Z,0.0000
2023-04-28T01:33:32.460Z,0.0000
2023-04-28T01:34:32.413Z,0.0000
2023-04-28T01:35:32.430Z,290.2617
2023-04-28T01:36:32.419Z,0.0000
2023-04-28T01:37:32.431Z,0.0000
2023-04-28T01:38:32.426Z,0.0000
2023-04-28T01:39:32.468Z,0.0000
2023-04-28T01:40:32.526Z,0.0000
2023-04-28T01:41:32.560Z,0.0000
2023-04-28T01:42:32.522Z,0.0000
2023-04-28T01:43:32.549Z,0.0000
2023-04-28T01:44:32.524Z,0.0000
2023-04-28T01:45:32.504Z,0.0000
2023-04-28T01:46:32.664Z,0.0000
2023-04-28T01:47:32.806Z,0.0000
2023-04-28T01:48:32.788Z,0.0000
2023-04-28T01:49:32.793Z,0.0000
2023-04-28T01:50:32.786Z,0.0000
2023-04-28T01:51:32.831Z,0.0000
2023-04-28T01:52:32.875Z,0.0000
2023-04-28T01:53:32.949Z,0.0000
2023-04-28T01:54:32.991Z,0.0000
2023-04-28T01:55:32.993Z,0.0000
2023-04-28T01:56:32.978Z,0.0000
2023-04-28T01:57:32.979Z,0.0000
2023-04-28T01:58:33.030Z,0.0000
2023-04-28T01:59:33.005Z,0.0000
2023-04-28T02:00:33.339Z,0.0000
2023-04-28T02:01:33.453Z,0.0000
2023-04-28T02:02:33.739Z,0.0000
2023-04-28T02:03:34.374Z,0.0000
2023-04-28T02:04:34.450Z,0.0000
2023-04-28T02:05:34.609Z,0.0000
2023-04-28T02:06:34.638Z,0.0000
2023-04-28T02:07:34.671Z,0.0000
2023-04-28T02:08:34.664Z,0.0000
2023-04-28T02:09:34.692Z,0.0000
2023-04-28T02:10:34.722Z,0.0000
2023-04-28T02:11:34.789Z,0.0000
2023-04-28T02:12:34.860Z,0.0000
2023-04-28T02:13:34.914Z,0.0000
2023-04-28T02:14:34.918Z,0.0000
2023-04-28T02:15:35.087Z,290.3052
2023-04-28T02:16:35.262Z,290.1747
2023-04-28T02:17:35.346Z,290.3487
2023-04-28T02:18:35.255Z,290.3922
2023-04-28T02:19:35.314Z,289.6530
2023-04-28T02:20:35.501Z,289.0443
2023-04-28T02:21:35.557Z,288.7834
2023-04-28T02:22:35.603Z,288.3487
2023-04-28T02:23:35.600Z,288.5661
2023-04-28T02:24:35.593Z,285.9572
2023-04-28T02:25:35.680Z,288.7839
2023-04-28T02:26:35.713Z,289.6965
2023-04-28T02:27:35.742Z,0.0000
2023-04-28T02:28:35.814Z,0.0000
2023-04-28T02:29:35.824Z,0.0000
2023-04-28T02:30:35.843Z,0.0000
2023-04-28T02:31:35.964Z,0.0000
2023-04-28T02:32:36.073Z,0.0000
2023-04-28T02:33:36.047Z,0.0000
2023-04-28T02:34:36.117Z,0.0000
2023-04-28T02:35:36.115Z,0.0000
2023-04-28T02:36:36.317Z,0.0000
2023-04-28T02:37:36.395Z,0.0000
2023-04-28T02:38:36.405Z,0.0000
2023-04-28T02:39:36.392Z,0.0000
2023-04-28T02:40:36.498Z,0.0000
2023-04-28T02:41:36.477Z,0.0000
2023-04-28T02:42:36.481Z,0.0000
2023-04-28T02:43:36.458Z,289.8269
2023-04-28T02:44:36.459Z,0.0000
2023-04-28T02:45:37.505Z,0.0000
2023-04-28T02:46:37.763Z,0.0000
2023-04-28T02:47:37.883Z,0.0000
2023-04-28T02:48:37.881Z,0.0000
2023-04-28T02:49:37.945Z,0.0000
2023-04-28T02:50:37.960Z,0.0000
2023-04-28T02:51:37.923Z,0.0000
2023-04-28T02:52:37.903Z,0.0000
2023-04-28T02:53:37.913Z,0.0000
2023-04-28T02:54:37.901Z,0.0000
2023-04-28T02:55:37.870Z,0.0000
2023-04-28T02:56:37.889Z,0.0000
2023-04-28T02:57:37.965Z,0.0000
2023-04-28T02:58:37.954Z,0.0000
2023-04-28T02:59:37.947Z,0.0000
2023-04-28T03:00:38.047Z,0.0000
2023-04-28T03:01:38.118Z,0.0000
2023-04-28T03:02:38.466Z,0.0000
2023-04-28T03:03:38.716Z,0.0000
2023-04-28T03:04:38.799Z,0.0000
2023-04-28T03:05:38.877Z,289.6530
2023-04-28T03:06:38.933Z,289.8269
2023-04-28T03:07:39.070Z,0.0000
2023-04-28T03:08:39.156Z,0.0000
2023-04-28T03:09:42.345Z,0.0000
2023-04-28T03:10:40.071Z,0.0000
2023-04-28T03:11:40.071Z,287.7004
2023-04-28T03:12:40.091Z,262.8414
2023-04-28T03:13:40.133Z,293.6530
2023-04-28T03:14:40.225Z,293.3487
2023-04-28T03:15:40.308Z,292.8704
2023-04-28T03:16:40.542Z,291.1352
2023-04-28T03:17:40.605Z,285.7834
2023-04-28T03:18:40.748Z,285.8704
2023-04-28T03:19:40.815Z,285.9139
2023-04-28T03:20:40.870Z,285.7834
2023-04-28T03:21:41.010Z,285.7400
2023-04-28T03:22:41.226Z,286.1313
2023-04-28T03:23:41.425Z,286.0878
2023-04-28T03:24:41.520Z,286.3922
2023-04-28T03:25:41.744Z,286.5660
2023-04-28T03:26:41.915Z,286.3052
2023-04-28T03:27:42.211Z,286.3052
2023-04-28T03:28:42.350Z,287.0007
2023-04-28T03:29:42.551Z,287.0009
2023-04-28T03:30:42.774Z,287.1747
2023-04-28T03:31:43.067Z,287.2182
2023-04-28T03:32:43.331Z,287.2617
2023-04-28T03:33:43.535Z,286.7834
2023-04-28T03:34:43.773Z,0.0000
2023-04-28T03:35:43.913Z,287.3487
2023-04-28T03:36:44.246Z,284.4000
2023-04-28T03:37:44.532Z,241.3062
2023-04-28T03:38:44.674Z,257.8321
2023-04-28T03:39:44.852Z,278.3869
2023-04-28T03:40:44.952Z,0.0000
2023-04-28T03:41:45.108Z,0.0000
2023-04-28T03:42:45.240Z,0.0000
2023-04-28T03:43:45.378Z,0.0000
2023-04-28T03:44:45.445Z,276.5226
2023-04-28T03:45:46.670Z,276.6095
2023-04-28T03:46:46.728Z,276.7400
2023-04-28T03:47:46.955Z,276.3052
2023-04-28T03:48:47.023Z,277.0007
2023-04-28T03:49:47.133Z,283.9671
2023-04-28T03:50:47.300Z,284.4427
2023-04-28T03:51:47.515Z,289.3052
2023-04-28T03:52:47.732Z,277.2947
2023-04-28T03:53:47.973Z,272.5662
2023-04-28T03:54:48.063Z,287.5983
2023-04-28T03:55:48.361Z,277.9569
2023-04-28T03:56:48.635Z,280.8260
2023-04-28T03:57:48.787Z,281.0878
2023-04-28T03:58:49.037Z,281.5186
2023-04-28T03:59:49.222Z,283.1840
2023-04-28T04:00:49.381Z,276.2126
2023-04-28T04:01:49.555Z,274.4791
2023-04-28T04:02:50.440Z,274.6530
2023-04-28T04:03:51.315Z,274.9574
2023-04-28T04:04:52.297Z,276.3484
2023-04-28T04:05:53.224Z,279.0008
2023-04-28T04:06:53.438Z,285.3025
2023-04-28T04:07:53.620Z,286.4791
2023-04-28T04:08:53.854Z,286.7842
2023-04-28T04:09:54.039Z,290.8268
2023-04-28T04:10:54.279Z,294.0446
2023-04-28T04:11:54.489Z,298.8453
2023-04-28T04:12:54.619Z,294.0878
2023-04-28T04:13:54.759Z,294.9139
2023-04-28T04:14:54.926Z,294.7834
2023-04-28T04:15:55.202Z,284.0355
2023-04-28T04:16:55.338Z,280.6743
2023-04-28T04:17:55.578Z,278.6527
2023-04-28T04:18:55.701Z,279.1753
2023-04-28T04:19:55.923Z,278.2177
2023-04-28T04:20:56.130Z,280.2748
2023-04-28T04:21:56.359Z,282.4166
2023-04-28T04:22:56.580Z,283.3439
2023-04-28T04:23:56.805Z,276.2700
2023-04-28T04:24:56.912Z,271.3052
2023-04-28T04:25:57.135Z,274.2607
2023-04-28T04:26:57.320Z,282.8083
2023-04-28T04:27:57.458Z,269.9569
2023-04-28T04:28:57.554Z,271.8269
2023-04-28T04:29:57.665Z,278.6530
2023-04-28T04:30:57.850Z,276.7399
2023-04-28T04:31:57.927Z,276.7834
2023-04-28T04:32:58.175Z,284.3944
2023-04-28T04:33:58.533Z,280.4369
2023-04-28T04:34:58.639Z,277.7800
2023-04-28T04:35:58.769Z,286.4356
2023-04-28T04:36:58.895Z,286.6965
2023-04-28T04:37:59.029Z,290.2182
2023-04-28T04:38:59.232Z,295.5659
2023-04-28T04:39:59.426Z,286.8650
2023-04-28T04:40:59.514Z,280.6095
2023-04-28T04:42:22.671Z,280.9139
2023-04-28T04:43:01.379Z,282.7903
2023-04-28T04:44:02.486Z,284.3904
2023-04-28T04:45:02.688Z,306.9573
2023-04-28T04:46:02.748Z,299.4279
2023-04-28T04:47:02.887Z,293.8665
2023-04-28T04:48:03.136Z,272.5212
2023-04-28T04:49:03.322Z,273.3919
2023-04-28T04:50:03.433Z,278.2557
2023-04-28T04:51:03.589Z,280.9134
2023-04-28T04:52:03.744Z,278.4337
2023-04-28T04:53:04.004Z,276.1747
2023-04-28T04:54:04.144Z,274.8693
2023-04-28T04:55:04.404Z,276.6530
2023-04-28T04:56:04.567Z,277.7834
2023-04-28T04:57:04.782Z,276.7399
2023-04-28T04:58:04.921Z,279.3052
2023-04-28T04:59:05.093Z,286.1333
2023-04-28T05:00:05.250Z,0.0000
2023-04-28T05:01:05.379Z,292.7402
2023-04-28T05:02:05.706Z,293.0878
2023-04-28T05:03:06.039Z,287.0723
2023-04-28T05:04:06.531Z,280.2182
2023-04-28T05:05:21.171Z,279.9139
2023-04-28T05:06:08.544Z,281.4745
2023-04-28T05:07:08.706Z,281.6530
2023-04-28T05:08:08.894Z,282.6096
2023-04-28T05:09:09.083Z,282.8704
2023-04-28T05:10:10.287Z,286.1313
2023-04-28T05:11:10.490Z,0.0000
2023-04-28T05:12:10.628Z,0.0000
2023-04-28T05:13:10.800Z,0.0000
2023-04-28T05:14:10.989Z,0.0000
2023-04-28T05:15:11.168Z,0.0000
2023-04-28T05:16:11.430Z,0.0000
2023-04-28T05:17:11.555Z,0.0000
2023-04-28T05:18:11.756Z,0.0000
2023-04-28T05:19:11.888Z,0.0000
2023-04-28T05:20:13.328Z,0.0000
2023-04-28T05:21:13.460Z,0.0000
2023-04-28T05:22:13.667Z,0.0000
2023-04-28T05:23:13.778Z,0.0000
2023-04-28T05:24:14.308Z,0.0000
2023-04-28T05:25:14.867Z,0.0000
2023-04-28T05:26:15.094Z,0.0000
2023-04-28T05:27:15.242Z,0.0000
2023-04-28T05:28:15.419Z,0.0000
2023-04-28T05:29:15.640Z,0.0000
2023-04-28T05:30:15.831Z,0.0000
2023-04-28T05:31:16.007Z,0.0000
2023-04-28T05:32:16.376Z,0.0000
2023-04-28T05:33:16.640Z,0.0000
2023-04-28T05:34:17.793Z,0.0000
2023-04-28T05:35:18.149Z,0.0000
2023-04-28T05:36:18.517Z,0.0000
2023-04-28T05:37:18.650Z,0.0000
2023-04-28T05:38:18.808Z,0.0000
2023-04-28T05:39:19.070Z,0.0000
2023-04-28T05:40:19.270Z,0.0000
2023-04-28T05:41:19.464Z,0.0000
2023-04-28T05:42:19.730Z,0.0000
2023-04-28T05:43:19.932Z,0.0000
2023-04-28T05:44:20.218Z,0.0000
2023-04-28T05:45:20.428Z,0.0000
2023-04-28T05:46:31.128Z,0.0000
2023-04-28T05:47:22.413Z,0.0000
2023-04-28T05:48:22.596Z,0.0000
2023-04-28T05:49:22.851Z,0.0000
2023-04-28T05:50:23.048Z,0.0000
2023-04-28T05:51:23.181Z,0.0000
2023-04-28T05:52:23.425Z,0.0000
2023-04-28T05:53:23.590Z,0.0000
2023-04-28T05:54:23.820Z,0.0000
2023-04-28T05:55:24.124Z,0.0000
2023-04-28T05:56:24.329Z,0.0000
2023-04-28T05:57:24.579Z,0.0000
2023-04-28T05:58:24.752Z,0.0000
2023-04-28T05:59:25.157Z,0.0000
2023-04-28T06:00:25.531Z,0.0000
2023-04-28T06:01:25.788Z,0.0000
2023-04-28T06:02:28.693Z,0.0000
2023-04-28T06:03:26.815Z,0.0000
2023-04-28T06:04:28.313Z,0.0000
2023-04-28T06:05:29.612Z,0.0000
2023-04-28T06:06:30.191Z,0.0000
2023-04-28T06:07:30.582Z,0.0000
2023-04-28T06:08:30.787Z,0.0000
2023-04-28T06:09:31.091Z,0.0000
2023-04-28T06:10:31.306Z,0.0000
2023-04-28T06:11:31.672Z,0.0000
2023-04-28T06:12:31.867Z,0.0000
2023-04-28T06:13:32.608Z,0.0000
2023-04-28T06:14:33.225Z,0.0000
2023-04-28T06:15:33.528Z,0.0000
2023-04-28T06:16:33.956Z,0.0000
2023-04-28T06:17:34.435Z,0.0000
2023-04-28T06:18:34.723Z,0.0000
2023-04-28T06:19:34.986Z,0.0000
2023-04-28T06:20:35.255Z,0.0000
2023-04-28T06:21:35.470Z,0.0000
2023-04-28T06:22:35.693Z,0.0000
2023-04-28T06:23:36.055Z,0.0000
2023-04-28T06:24:36.325Z,0.0000
2023-04-28T06:25:36.658Z,0.0000
2023-04-28T06:26:36.982Z,0.0000
2023-04-28T06:27:37.340Z,286.0443
2023-04-28T06:28:37.570Z,286.0878
2023-04-28T06:29:37.921Z,285.8704
2023-04-28T06:30:38.253Z,285.9139
2023-04-28T06:31:38.648Z,0.0000
2023-04-28T06:32:38.957Z,0.0000
2023-04-28T06:33:39.206Z,0.0000
2023-04-28T06:34:39.517Z,285.8704
2023-04-28T06:35:39.814Z,286.1313
2023-04-28T06:36:40.083Z,285.7834
2023-04-28T06:37:40.288Z,285.9574
2023-04-28T06:38:40.531Z,287.3486
2023-04-28T06:39:40.849Z,287.3922
2023-04-28T06:40:41.085Z,278.2211
2023-04-28T06:41:41.284Z,282.6094
2023-04-28T06:42:41.766Z,286.3495
2023-04-28T06:43:42.231Z,280.0443
2023-04-28T06:44:42.666Z,279.9139
2023-04-28T06:45:42.898Z,281.2604
2023-04-28T06:46:43.208Z,278.5820
2023-04-28T06:47:44.216Z,272.6104
2023-04-28T06:48:44.846Z,268.4178
2023-04-28T06:49:45.106Z,275.7815
2023-04-28T06:50:45.322Z,269.2613
2023-04-28T06:51:45.557Z,272.8672
2023-04-28T06:52:45.827Z,281.8269
2023-04-28T06:53:46.057Z,284.5229
2023-04-28T06:54:46.331Z,287.2617
2023-04-28T06:55:46.558Z,288.7337
2023-04-28T06:56:46.812Z,283.5300
2023-04-28T06:57:47.052Z,282.0864
2023-04-28T06:58:47.326Z,287.8238
2023-04-28T06:59:47.638Z,289.8313
2023-04-28T07:00:48.114Z,272.3454
2023-04-28T07:01:48.401Z,275.8848
2023-04-28T07:02:49.301Z,266.6430
2023-04-28T07:03:50.384Z,274.1377
2023-04-28T07:04:50.613Z,283.1747
2023-04-28T07:05:50.859Z,281.2772
2023-04-28T07:06:51.439Z,275.1941
2023-04-28T07:07:51.650Z,281.1750
2023-04-28T07:08:51.860Z,278.3054
2023-04-28T07:09:53.168Z,287.1205
2023-04-28T07:10:53.371Z,267.2315
2023-04-28T07:11:53.618Z,270.1960
2023-04-28T07:12:53.911Z,273.6339
2023-04-28T07:13:54.124Z,278.6508
2023-04-28T07:14:54.347Z,285.1954
2023-04-28T07:15:54.624Z,274.0862
2023-04-28T07:16:54.926Z,281.1714
2023-04-28T07:17:55.244Z,285.2824
2023-04-28T07:18:55.429Z,284.3937
2023-04-28T07:19:55.687Z,289.4604
2023-04-28T07:20:55.893Z,287.1089
2023-04-28T07:21:56.182Z,284.6438
2023-04-28T07:22:56.398Z,278.2615
2023-04-28T07:23:56.588Z,277.2002
2023-04-28T07:24:56.876Z,289.0824
2023-04-28T07:25:57.107Z,285.5298
2023-04-28T07:26:57.407Z,273.9945
2023-04-28T07:27:57.669Z,279.7569
2023-04-28T07:28:57.891Z,276.6149
2023-04-28T07:29:58.597Z,282.7243
2023-04-28T07:30:58.827Z,285.8202
2023-04-28T07:31:59.159Z,284.1305
2023-04-28T07:32:59.533Z,284.0477
2023-04-28T07:33:59.758Z,285.8378
2023-04-28T07:35:00.040Z,282.7399
2023-04-28T07:36:00.412Z,287.3221
2023-04-28T07:37:00.754Z,282.0751
2023-04-28T07:38:01.027Z,280.3215
2023-04-28T07:39:01.284Z,282.0075
2023-04-28T07:40:01.630Z,281.8229
2023-04-28T07:41:01.901Z,284.6085
2023-04-28T07:42:02.096Z,282.0864
2023-04-28T07:43:02.343Z,278.7449
2023-04-28T07:44:02.590Z,285.2704
2023-04-28T07:45:02.923Z,281.6831
2023-04-28T07:46:03.266Z,286.7047
2023-04-28T07:47:03.493Z,284.5139
2023-04-28T07:48:03.786Z,287.1234
2023-04-28T07:49:04.036Z,287.9000
2023-04-28T07:50:04.338Z,281.2563
2023-04-28T07:51:04.534Z,276.6925
2023-04-28T07:52:04.759Z,287.1937
2023-04-28T07:53:05.035Z,285.0927
2023-04-28T07:54:05.231Z,280.4800
2023-04-28T07:55:05.554Z,281.9167
2023-04-28T07:56:05.872Z,279.5732
2023-04-28T07:57:06.099Z,276.5581
2023-04-28T07:58:06.355Z,278.3029
2023-04-28T07:59:06.590Z,284.6137
2023-04-28T08:00:06.806Z,278.5734
2023-04-28T08:01:07.074Z,286.4459
2023-04-28T08:02:07.352Z,280.5844
2023-04-28T08:03:07.939Z,278.5479
2023-04-28T08:04:09.136Z,285.2119
2023-04-28T08:05:11.369Z,289.3998
2023-04-28T08:06:11.671Z,294.5245
2023-04-28T08:07:11.990Z,291.2852
2023-04-28T08:08:12.255Z,279.2766
2023-04-28T08:09:12.501Z,283.8909
2023-04-28T08:10:12.794Z,279.7400
2023-04-28T08:11:13.069Z,287.7166
2023-04-28T08:12:13.304Z,280.6756
2023-04-28T08:13:13.559Z,283.1550
2023-04-28T08:14:14.153Z,280.8913
2023-04-28T08:15:18.376Z,287.5845
2023-04-28T08:16:16.530Z,296.2281
2023-04-28T08:17:16.803Z,286.4500
2023-04-28T08:18:17.151Z,275.5565
2023-04-28T08:19:17.423Z,283.9655
2023-04-28T08:20:17.722Z,283.5370
2023-04-28T08:21:17.942Z,295.1082
2023-04-28T08:22:18.202Z,275.9310
2023-04-28T08:23:18.452Z,285.3042
2023-04-28T08:24:18.946Z,276.5400
2023-04-28T08:25:19.189Z,276.5228
2023-04-28T08:26:19.489Z,280.2143
2023-04-28T08:27:19.734Z,275.2194
2023-04-28T08:28:20.007Z,279.3923
2023-04-28T08:29:20.531Z,283.7632
2023-04-28T08:30:20.852Z,282.5871
2023-04-28T08:31:21.173Z,286.0162
2023-04-28T08:32:21.445Z,288.7488
2023-04-28T08:33:21.728Z,283.5800
2023-04-28T08:34:22.966Z,285.1787
2023-04-28T08:35:23.627Z,284.4357
2023-04-28T08:36:23.868Z,290.8537
2023-04-28T08:37:24.092Z,284.4252
2023-04-28T08:38:24.425Z,282.5786
2023-04-28T08:39:24.666Z,290.8867
2023-04-28T08:40:24.951Z,292.7034
2023-04-28T08:41:25.196Z,289.5021
2023-04-28T08:42:25.511Z,287.6698
2023-04-28T08:43:25.811Z,283.0811
2023-04-28T08:44:27.350Z,274.9574
2023-04-28T08:45:28.841Z,297.7798
2023-04-28T08:46:29.200Z,298.8259
2023-04-28T08:47:29.485Z,293.6122
2023-04-28T08:48:29.836Z,295.1894
2023-04-28T08:49:30.054Z,285.1701
2023-04-28T08:50:30.345Z,279.6534
2023-04-28T08:51:30.609Z,284.5888
2023-04-28T08:52:30.858Z,275.5995
2023-04-28T08:53:31.130Z,292.7033
2023-04-28T08:54:31.940Z,304.7866
2023-04-28T08:55:32.519Z,292.7584
2023-04-28T08:56:32.789Z,290.1746
2023-04-28T08:57:33.060Z,293.6965
2023-04-28T08:58:33.322Z,282.7888
2023-04-28T08:59:33.622Z,282.5223
2023-04-28T09:00:33.932Z,284.8701
2023-04-28T09:01:34.327Z,284.7839
2023-04-28T09:02:35.094Z,282.9587
2023-04-28T09:03:35.698Z,284.6476
2023-04-28T09:04:36.825Z,286.5985
2023-04-28T09:05:37.490Z,292.6276
2023-04-28T09:06:38.262Z,293.3057
2023-04-28T09:07:38.622Z,278.1352
2023-04-28T09:08:38.984Z,279.4405
2023-04-28T09:09:39.712Z,283.6357
2023-04-28T09:10:40.088Z,285.6371
2023-04-28T09:11:40.439Z,282.5605
2023-04-28T09:12:40.769Z,280.5661
2023-04-28T09:13:41.097Z,285.0533
2023-04-28T09:14:41.401Z,283.4352
2023-04-28T09:15:41.769Z,279.3664
2023-04-28T09:16:42.282Z,277.4362
2023-04-28T09:17:42.729Z,288.7789
2023-04-28T09:18:43.138Z,290.1148
2023-04-28T09:19:44.492Z,278.7212
2023-04-28T09:20:44.876Z,283.7825
2023-04-28T09:21:45.253Z,281.9778
2023-04-28T09:22:45.690Z,286.7304
2023-04-28T09:23:46.037Z,284.2897
2023-04-28T09:24:46.320Z,285.6179
2023-04-28T09:25:46.671Z,297.6530
2023-04-28T09:26:48.014Z,298.8705
2023-04-28T09:27:48.509Z,283.2086
2023-04-28T09:28:48.995Z,287.4229
2023-04-28T09:29:49.270Z,290.7912
2023-04-28T09:30:49.605Z,280.8181
2023-04-28T09:31:49.998Z,283.5240
2023-04-28T09:32:50.373Z,281.8090
2023-04-28T09:33:50.614Z,287.7378
2023-04-28T09:34:50.923Z,274.5772
2023-04-28T09:35:51.231Z,282.3052
2023-04-28T09:36:51.546Z,287.0405
2023-04-28T09:37:51.824Z,279.9994
2023-04-28T09:38:52.182Z,288.8670
2023-04-28T09:39:52.518Z,287.4125
2023-04-28T09:40:52.761Z,285.8618
2023-04-28T09:41:53.126Z,281.7897
2023-04-28T09:42:53.396Z,273.8292
2023-04-28T09:43:53.675Z,276.0266
2023-04-28T09:44:54.027Z,274.5222
2023-04-28T09:45:54.520Z,277.9139
2023-04-28T09:46:54.764Z,282.2618
2023-04-28T09:47:55.220Z,286.1747
2023-04-28T09:48:55.519Z,286.2671
2023-04-28T09:49:55.843Z,286.9149
2023-04-28T09:50:56.145Z,289.7395
2023-04-28T09:51:56.489Z,284.9555
2023-04-28T09:52:56.825Z,285.2144
2023-04-28T09:53:57.118Z,279.6536
2023-04-28T09:54:57.469Z,284.1755
2023-04-28T09:55:57.818Z,281.1548
2023-04-28T09:56:58.158Z,287.4241
2023-04-28T09:57:58.450Z,278.2020
2023-04-28T09:58:58.843Z,277.6057
2023-04-28T09:59:59.181Z,289.4128
2023-04-28T10:00:59.548Z,277.0848
2023-04-28T10:02:25.955Z,276.3487
2023-04-28T10:03:02.128Z,288.8547
2023-04-28T10:04:03.121Z,300.4951
2023-04-28T10:05:04.188Z,280.5203
2023-04-28T10:06:04.680Z,280.2537
2023-04-28T10:07:04.998Z,278.2982
2023-04-28T10:08:05.318Z,288.5001
2023-04-28T10:09:05.631Z,288.6352
2023-04-28T10:10:05.952Z,289.4848
2023-04-28T10:11:06.395Z,288.6016
2023-04-28T10:12:06.784Z,288.2617
2023-04-28T10:13:07.191Z,288.4791
2023-04-28T10:14:07.503Z,291.1685
2023-04-28T10:15:07.880Z,285.4322
2023-04-28T10:16:08.424Z,289.9929
2023-04-28T10:17:08.787Z,291.8389
2023-04-28T10:18:09.355Z,286.7617
2023-04-28T10:19:09.683Z,286.6095
2023-04-28T10:20:10.015Z,279.7565
2023-04-28T10:21:10.347Z,282.2982
2023-04-28T10:22:10.700Z,283.0540
2023-04-28T10:23:11.028Z,287.4791
2023-04-28T10:24:11.438Z,284.2662
2023-04-28T10:25:11.797Z,283.7572
2023-04-28T10:26:12.173Z,308.9043
2023-04-28T10:27:12.469Z,293.8905
2023-04-28T10:28:12.832Z,288.8741
2023-04-28T10:29:13.157Z,291.6898
2023-04-28T10:30:27.506Z,283.1747
2023-04-28T10:31:15.397Z,283.9669
2023-04-28T10:32:15.715Z,277.8098
2023-04-28T10:33:16.030Z,305.7419
2023-04-28T10:34:16.377Z,290.8095
2023-04-28T10:35:16.724Z,279.0009
2023-04-28T10:36:33.657Z,304.7834
2023-04-28T10:37:18.858Z,303.0008
2023-04-28T10:38:19.141Z,279.0342
2023-04-28T10:39:19.489Z,283.2637
2023-04-28T10:40:19.841Z,285.3486
2023-04-28T10:41:20.180Z,286.8392
2023-04-28T10:42:20.507Z,283.3434
2023-04-28T10:43:20.889Z,274.8607
2023-04-28T10:44:21.253Z,280.0437
2023-04-28T10:45:21.636Z,291.1760
2023-04-28T10:46:22.066Z,294.4330
2023-04-28T10:47:22.759Z,277.6044
2023-04-28T10:48:23.067Z,273.9508
2023-04-28T10:49:23.410Z,285.9139
2023-04-28T10:50:39.187Z,289.4789
2023-04-28T10:51:25.699Z,292.2641
2023-04-28T10:52:26.041Z,293.8274
2023-04-28T10:53:26.842Z,287.8231
2023-04-28T10:54:27.702Z,278.5226
2023-04-28T10:55:28.119Z,281.8269
2023-04-28T10:56:28.535Z,277.7473
2023-04-28T10:57:28.869Z,279.3507
2023-04-28T10:58:29.293Z,289.5226
2023-04-28T10:59:29.653Z,288.3490
2023-04-28T11:00:30.028Z,282.6925
2023-04-28T11:01:30.543Z,281.5226
2023-04-28T11:02:31.506Z,285.6502
2023-04-28T11:03:33.322Z,290.8741
2023-04-28T11:04:34.889Z,295.0443
2023-04-28T11:05:35.463Z,290.1312
2023-04-28T11:06:35.979Z,293.2983
2023-04-28T11:07:36.354Z,292.3922
2023-04-28T11:08:36.695Z,292.4356
2023-04-28T11:09:37.045Z,305.3152
2023-04-28T11:10:37.359Z,303.8269
2023-04-28T11:11:37.743Z,304.4791
2023-04-28T11:12:38.111Z,305.5661
2023-04-28T11:13:42.337Z,305.3921
2023-04-28T11:14:41.437Z,303.5917
2023-04-28T11:15:41.817Z,279.8316
2023-04-28T11:16:42.293Z,280.7401
2023-04-28T11:17:42.699Z,281.6530
2023-04-28T11:18:43.024Z,281.1722
2023-04-28T11:19:43.348Z,279.2564
2023-04-28T11:20:43.670Z,291.1730
2023-04-28T11:21:44.051Z,291.8320
2023-04-28T11:22:44.465Z,313.9568
2023-04-28T11:23:44.828Z,294.6324
2023-04-28T11:24:45.158Z,291.9589
2023-04-28T11:25:45.528Z,297.9574
2023-04-28T11:26:45.909Z,0.0000
2023-04-28T11:27:46.247Z,298.3922
2023-04-28T11:28:46.615Z,299.1747
2023-04-28T11:29:46.950Z,300.5226
2023-04-28T11:30:47.298Z,294.2917
2023-04-28T11:31:47.658Z,286.1750
2023-04-28T11:32:48.095Z,286.9138
2023-04-28T11:33:48.472Z,289.3052
2023-04-28T11:34:48.785Z,290.3276
2023-04-28T11:35:49.171Z,281.7398
2023-04-28T11:36:49.604Z,286.3921
2023-04-28T11:37:49.915Z,294.9916
2023-04-28T11:38:50.320Z,291.1748
2023-04-28T11:39:50.653Z,287.3529
2023-04-28T11:40:51.041Z,284.0436
2023-04-28T11:41:51.434Z,292.6080
2023-04-28T11:42:51.748Z,297.0008
2023-04-28T11:43:52.085Z,303.6443
2023-04-28T11:44:52.457Z,298.7376
2023-04-28T11:45:52.901Z,297.1259
2023-04-28T11:46:53.253Z,290.0006
2023-04-28T11:47:53.678Z,290.8257
2023-04-28T11:48:54.049Z,297.2182
2023-04-28T11:49:54.377Z,267.2180
2023-04-28T11:50:54.667Z,267.3917
2023-04-28T11:51:55.002Z,276.1277
2023-04-28T11:52:55.311Z,0.0000
2023-04-28T11:53:55.582Z,0.0000
2023-04-28T11:54:55.938Z,295.4049
2023-04-28T11:55:56.425Z,302.0009
2023-04-28T11:56:56.814Z,298.0872
2023-04-28T11:57:57.097Z,300.5226
2023-04-28T11:58:57.440Z,300.3487
2023-04-28T11:59:57.767Z,300.1317